Time;durP1;ratioP1;P1;durP2;ratioP2;P2;SDS_P1;SDS_P2;PMS_P1;PMS_P2;Temp;Humidity;BMP_temperature;BMP_pressure;BME280_temperature;BME280_humidity;BME280_pressure;Samples;Min_cycle;Max_cycle;Signal;HPM_P1;HPM_P2
2023/05/21 00:00:23;;;;;;;4.50;3.00;;;;;;;13.41;57.16;100466.23;106220;1257;71498;-79
2023/05/21 00:02:50;;;;;;;5.10;2.90;;;;;;;13.35;57.39;100461.17;106320;1256;72893;-78
2023/05/21 00:05:17;;;;;;;8.80;2.70;;;;;;;13.28;57.47;100464.51;106196;1257;60382;-77
2023/05/21 00:07:45;;;;;;;12.80;2.60;;;;;;;13.23;57.53;100463.27;106221;1253;60534;-76
2023/05/21 00:10:12;;;;;;;7.90;3.00;;;;;;;13.17;57.66;100467.09;106117;1253;72482;-79
2023/05/21 00:12:40;;;;;;;8.40;2.80;;;;;;;13.14;57.68;100465.48;106916;1253;72029;-76
2023/05/21 00:15:08;;;;;;;5.20;3.10;;;;;;;13.12;57.79;100468.72;107317;1253;71664;-78
2023/05/21 00:17:35;;;;;;;5.70;2.80;;;;;;;13.09;57.74;100469.36;107084;1258;60381;-80
2023/05/21 00:20:06;;;;;;;5.30;2.80;;;;;;;13.06;57.89;100465.78;106093;1253;60431;-77
2023/05/21 00:22:34;;;;;;;5.40;2.50;;;;;;;13.05;57.94;100464.85;106197;1253;74234;-78
2023/05/21 00:25:04;;;;;;;5.10;2.70;;;;;;;13.04;57.95;100463.71;106131;1253;68676;-80
2023/05/21 00:27:31;;;;;;;4.50;2.80;;;;;;;13.03;57.97;100462.77;106222;1257;73869;-79
2023/05/21 00:29:58;;;;;;;7.70;2.60;;;;;;;13.00;57.96;100458.88;106220;1253;61341;-80
2023/05/21 00:32:25;;;;;;;4.10;2.50;;;;;;;12.98;58.14;100457.27;106173;1253;60424;-76
2023/05/21 00:34:52;;;;;;;9.50;3.40;;;;;;;12.95;58.17;100459.77;106045;1253;73870;-79
2023/05/21 00:37:19;;;;;;;5.40;2.50;;;;;;;12.91;58.16;100460.73;106265;1253;70312;-81
2023/05/21 00:39:46;;;;;;;7.00;2.60;;;;;;;12.88;58.18;100457.83;106201;1253;72851;-81
2023/05/21 00:42:17;;;;;;;3.70;2.40;;;;;;;12.87;58.19;100457.94;106126;1255;59277;-80
2023/05/21 00:44:44;;;;;;;11.40;2.70;;;;;;;12.84;58.36;100455.03;106027;1253;60326;-79
2023/05/21 00:47:12;;;;;;;5.30;2.40;;;;;;;12.83;58.38;100451.30;106170;1253;73592;-79
2023/05/21 00:49:39;;;;;;;5.40;2.80;;;;;;;12.81;58.45;100446.55;106179;1252;71108;-79
2023/05/21 00:52:06;;;;;;;10.80;3.30;;;;;;;12.79;58.50;100446.16;106280;1253;72826;-77
2023/05/21 00:54:33;;;;;;;4.40;2.60;;;;;;;12.76;58.70;100447.66;106105;1253;60795;-78
2023/05/21 00:57:00;;;;;;;5.50;2.40;;;;;;;12.74;58.89;100452.05;106148;1253;60526;-76
2023/05/21 00:59:27;;;;;;;6.00;2.70;;;;;;;12.71;58.96;100452.36;106045;1257;74951;-78
2023/05/21 01:01:55;;;;;;;6.50;2.90;;;;;;;12.70;59.15;100451.92;106032;1253;69270;-80
2023/05/21 01:04:22;;;;;;;6.10;3.00;;;;;;;12.68;59.14;100454.25;105954;1253;70521;-75
2023/05/21 01:06:52;;;;;;;6.40;2.30;;;;;;;12.66;59.26;100453.48;106101;1253;60532;-79
2023/05/21 01:09:21;;;;;;;6.70;2.70;;;;;;;12.61;59.25;100449.84;106455;1253;61584;-78
2023/05/21 01:11:50;;;;;;;5.40;2.70;;;;;;;12.56;59.30;100447.37;108308;1253;73943;-76
2023/05/21 01:14:17;;;;;;;6.30;3.30;;;;;;;12.53;59.36;100446.80;108889;1252;70243;-77
2023/05/21 01:16:46;;;;;;;6.60;3.60;;;;;;;12.51;59.54;100444.73;109081;1252;72855;-77
2023/05/21 01:19:15;;;;;;;9.10;2.60;;;;;;;12.49;59.57;100446.65;109101;1253;60117;-76
2023/05/21 01:21:50;;;;;;;6.10;3.00;;;;;;;12.48;59.65;100441.63;109184;1252;59901;-78
2023/05/21 01:24:17;;;;;;;4.60;2.70;;;;;;;12.47;59.57;100440.19;109315;1252;74096;-79
2023/05/21 01:26:45;;;;;;;6.00;3.10;;;;;;;12.45;59.56;100439.31;109259;1252;69838;-78
2023/05/21 01:29:14;;;;;;;10.00;3.30;;;;;;;12.43;59.77;100434.71;109448;1253;71005;-78
2023/05/21 01:31:49;;;;;;;4.80;2.30;;;;;;;12.41;59.82;100433.15;109415;1253;58558;-78
2023/05/21 01:34:15;;;;;;;5.70;2.60;;;;;;;12.43;59.79;100434.61;109533;1251;59331;-78
2023/05/21 01:36:46;;;;;;;3.90;2.70;;;;;;;12.42;60.01;100435.24;109508;1253;71931;-79
2023/05/21 01:39:16;;;;;;;6.50;2.80;;;;;;;12.40;59.92;100433.65;109479;1253;68431;-78
2023/05/21 01:41:43;;;;;;;3.40;2.90;;;;;;;12.38;60.01;100435.94;109443;1252;71682;-78
2023/05/21 01:44:10;;;;;;;4.40;3.10;;;;;;;12.37;59.89;100434.46;109376;1253;59198;-78
2023/05/21 01:46:37;;;;;;;6.60;2.50;;;;;;;12.36;60.17;100436.33;109409;1252;60049;-80
2023/05/21 01:49:05;;;;;;;5.70;3.10;;;;;;;12.34;60.20;100435.86;109212;1253;73002;-78
2023/05/21 01:51:32;;;;;;;5.10;2.80;;;;;;;12.32;60.08;100435.52;109297;1251;70494;-75
2023/05/21 01:53:59;;;;;;;7.70;2.70;;;;;;;12.28;60.26;100429.75;109226;1253;72114;-74
2023/05/21 01:56:27;;;;;;;5.60;2.90;;;;;;;12.25;60.29;100429.02;109118;1252;60340;-75
2023/05/21 01:58:55;;;;;;;4.90;2.90;;;;;;;12.21;60.58;100428.52;109016;1253;59214;-78
2023/05/21 02:01:22;;;;;;;7.40;3.20;;;;;;;12.16;60.65;100430.95;109256;1253;72746;-77
2023/05/21 02:03:49;;;;;;;6.20;2.80;;;;;;;12.12;60.79;100432.27;109468;1253;70001;-78
2023/05/21 02:06:16;;;;;;;5.90;3.10;;;;;;;12.08;60.90;100436.44;109390;1253;71514;-78
2023/05/21 02:08:44;;;;;;;5.10;2.30;;;;;;;12.04;61.19;100438.63;109283;1253;60064;-78
2023/05/21 02:11:11;;;;;;;4.80;2.90;;;;;;;12.00;61.28;100438.51;109381;1253;60219;-77
2023/05/21 02:13:41;;;;;;;4.50;2.40;;;;;;;11.95;61.25;100435.83;109241;1253;72011;-79
2023/05/21 02:16:10;;;;;;;7.00;2.70;;;;;;;11.90;61.12;100436.01;109427;1253;68915;-78
2023/05/21 02:18:37;;;;;;;2.90;2.60;;;;;;;11.84;61.19;100440.20;109357;1252;70503;-79
2023/05/21 02:21:04;;;;;;;7.90;3.50;;;;;;;11.79;61.08;100440.30;109311;1253;58186;-82
2023/05/21 02:23:31;;;;;;;9.50;3.10;;;;;;;11.75;60.99;100437.57;109442;1253;59105;-79
2023/05/21 02:25:58;;;;;;;7.40;3.00;;;;;;;11.71;61.18;100438.51;109270;1253;73933;-79
2023/05/21 02:28:26;;;;;;;4.10;2.80;;;;;;;11.67;61.02;100439.79;109244;1253;69750;-79
2023/05/21 02:30:53;;;;;;;5.80;3.30;;;;;;;11.63;61.10;100437.92;109178;1253;72779;-81
2023/05/21 02:33:21;;;;;;;7.30;3.20;;;;;;;11.61;61.22;100441.83;109071;1253;59396;-78
2023/05/21 02:35:48;;;;;;;6.40;2.80;;;;;;;11.59;60.84;100439.34;109408;1253;60136;-79
2023/05/21 02:38:18;;;;;;;5.80;3.30;;;;;;;11.56;61.13;100440.36;109225;1253;72780;-79
2023/05/21 02:40:45;;;;;;;4.40;2.80;;;;;;;11.55;60.98;100441.91;109374;1253;68613;-79
2023/05/21 02:43:12;;;;;;;5.80;2.70;;;;;;;11.53;61.11;100436.21;109327;1253;71831;-79
2023/05/21 02:45:42;;;;;;;4.70;3.20;;;;;;;11.54;60.96;100433.95;109195;1253;60459;-80
2023/05/21 02:48:10;;;;;;;6.50;3.10;;;;;;;11.54;60.93;100439.64;109346;1253;59111;-79
2023/05/21 02:50:39;;;;;;;7.50;2.60;;;;;;;11.54;61.01;100438.95;109222;1253;73659;-78
2023/05/21 02:53:06;;;;;;;4.10;3.20;;;;;;;11.54;61.21;100435.79;109133;1253;70037;-77
2023/05/21 02:55:34;;;;;;;3.90;2.90;;;;;;;11.53;61.16;100434.11;109060;1253;71764;-75
2023/05/21 02:58:01;;;;;;;9.60;2.80;;;;;;;11.52;60.92;100434.38;107252;1253;59306;-77
2023/05/21 03:00:28;;;;;;;6.10;2.80;;;;;;;11.50;60.88;100434.08;106912;1252;61428;-78
2023/05/21 03:02:55;;;;;;;3.10;2.40;;;;;;;11.48;61.17;100431.43;107322;1253;74251;-79
2023/05/21 03:05:23;;;;;;;5.30;2.60;;;;;;;11.47;60.87;100437.27;106459;1258;71433;-76
2023/05/21 03:07:50;;;;;;;4.50;2.90;;;;;;;11.45;61.22;100438.85;106260;1253;72904;-76
2023/05/21 03:10:17;;;;;;;4.80;3.00;;;;;;;11.46;61.07;100442.98;106470;1253;60447;-79
2023/05/21 03:12:44;;;;;;;4.00;3.30;;;;;;;11.46;60.99;100441.53;106709;1253;61756;-77
2023/05/21 03:15:13;;;;;;;5.50;3.00;;;;;;;11.46;61.27;100440.13;107729;1253;74721;-79
2023/05/21 03:17:41;;;;;;;5.30;3.10;;;;;;;11.44;60.90;100437.34;108998;1253;70444;-79
2023/05/21 03:20:14;;;;;;;4.50;3.00;;;;;;;11.42;60.85;100439.52;107920;1253;71725;-78
2023/05/21 03:22:43;;;;;;;6.80;2.90;;;;;;;11.43;61.05;100439.10;107951;1253;60490;-79
2023/05/21 03:25:11;;;;;;;7.30;3.70;;;;;;;11.43;60.88;100443.70;106520;1253;60504;-79
2023/05/21 03:27:38;;;;;;;5.70;3.10;;;;;;;11.43;60.75;100444.38;106401;1257;75105;-80
2023/05/21 03:30:08;;;;;;;6.90;4.00;;;;;;;11.45;60.79;100450.86;106043;1253;71235;-81
2023/05/21 03:32:43;;;;;;;8.20;3.40;;;;;;;11.48;60.91;100454.01;106246;1253;72397;-77
2023/05/21 03:35:10;;;;;;;5.50;3.40;;;;;;;11.49;60.76;100452.98;106380;1253;60429;-78
2023/05/21 03:37:38;;;;;;;6.30;3.90;;;;;;;11.49;60.54;100460.59;106195;1254;60520;-76
2023/05/21 03:40:06;;;;;;;6.70;3.90;;;;;;;11.50;60.87;100458.23;106041;1258;74031;-77
2023/05/21 03:42:32;;;;;;;5.80;4.20;;;;;;;11.52;60.60;100455.83;106450;1253;71236;-80
2023/05/21 03:44:59;;;;;;;4.20;3.40;;;;;;;11.52;60.70;100455.90;106024;1253;71042;-78
2023/05/21 03:47:45;;;;;;;5.90;4.40;;;;;;;11.55;60.87;100453.41;106108;1253;60450;-80
2023/05/21 03:50:13;;;;;;;6.10;4.20;;;;;;;11.59;60.56;100453.33;105898;1253;60543;-76
2023/05/21 03:52:40;;;;;;;5.00;3.90;;;;;;;11.62;60.60;100454.50;105799;1253;74843;-77
2023/05/21 03:55:07;;;;;;;6.40;3.60;;;;;;;11.64;60.57;100458.02;105764;1258;69545;-78
2023/05/21 03:57:34;;;;;;;10.20;4.70;;;;;;;11.66;60.51;100455.69;105771;1254;71849;-80
2023/05/21 04:00:03;;;;;;;6.60;4.10;;;;;;;11.68;60.44;100457.23;105918;1253;61639;-80
2023/05/21 04:02:31;;;;;;;5.80;4.00;;;;;;;11.71;60.44;100455.55;106019;1257;63412;-79
2023/05/21 04:04:58;;;;;;;5.30;3.50;;;;;;;11.73;60.25;100456.42;105967;1253;72897;-79
2023/05/21 04:07:25;;;;;;;5.00;4.20;;;;;;;11.75;60.19;100453.30;106002;1258;71782;-76
2023/05/21 04:09:52;;;;;;;8.10;4.60;;;;;;;11.79;60.30;100453.28;105909;1257;73898;-76
2023/05/21 04:12:19;;;;;;;8.90;4.20;;;;;;;11.80;60.25;100458.14;105974;1253;61434;-77
2023/05/21 04:14:47;;;;;;;8.20;4.90;;;;;;;11.85;60.13;100457.61;105992;1253;61326;-79
2023/05/21 04:20:25;;;;;;;5.00;4.40;;;;;;;12.07;59.95;100450.83;103462;1295;602977;-79
2023/05/21 04:22:52;;;;;;;6.60;4.80;;;;;;;12.24;59.69;100447.59;106425;1267;58546;-80
2023/05/21 04:25:20;;;;;;;5.80;5.20;;;;;;;12.40;59.52;100452.49;106257;1269;58856;-80
2023/05/21 04:27:48;;;;;;;7.40;5.10;;;;;;;12.52;59.22;100449.06;105380;1272;70130;-81
2023/05/21 04:30:16;;;;;;;6.30;4.50;;;;;;;12.61;59.06;100445.24;105328;1273;69274;-81
2023/05/21 04:32:44;;;;;;;6.00;5.00;;;;;;;12.67;58.79;100446.16;105965;1258;194795;-78
2023/05/21 04:35:13;;;;;;;8.10;4.80;;;;;;;12.73;58.71;100442.02;106246;1258;60384;-77
2023/05/21 04:37:41;;;;;;;7.90;4.70;;;;;;;12.79;58.47;100440.63;106085;1261;61035;-80
2023/05/21 04:40:08;;;;;;;6.20;4.40;;;;;;;12.87;58.34;100438.23;106103;1261;72001;-80
2023/05/21 04:42:35;;;;;;;6.20;4.80;;;;;;;12.95;58.29;100437.34;106066;1260;70689;-79
2023/05/21 04:45:02;;;;;;;9.10;4.50;;;;;;;13.02;58.03;100435.74;105876;1257;72824;-79
2023/05/21 04:47:34;;;;;;;5.40;4.30;;;;;;;13.07;57.80;100438.02;105904;1263;60247;-79
2023/05/21 04:50:01;;;;;;;7.30;4.40;;;;;;;13.18;57.59;100438.00;105997;1257;59658;-80
2023/05/21 04:52:28;;;;;;;6.30;4.40;;;;;;;13.41;57.42;100438.60;105839;1256;73039;-79
2023/05/21 04:54:54;;;;;;;8.40;5.10;;;;;;;13.61;57.12;100431.92;105855;1259;71556;-82
2023/05/21 04:57:23;;;;;;;7.20;4.50;;;;;;;13.71;56.79;100429.16;105739;1262;70850;-81
2023/05/21 04:59:51;;;;;;;11.80;4.70;;;;;;;13.81;56.45;100433.77;105660;1257;59732;-80
2023/05/21 05:02:18;;;;;;;6.90;5.40;;;;;;;13.90;56.24;100433.50;105796;1262;60650;-79
2023/05/21 05:04:45;;;;;;;5.10;4.40;;;;;;;14.02;55.97;100437.78;105603;1262;72465;-79
2023/05/21 05:07:12;;;;;;;9.50;5.00;;;;;;;14.13;55.63;100433.56;105765;1260;70584;-81
2023/05/21 05:09:39;;;;;;;5.60;4.20;;;;;;;14.18;55.69;100431.98;106495;1257;73701;-78
2023/05/21 05:12:06;;;;;;;8.00;4.80;;;;;;;14.18;55.58;100425.86;106384;1257;60401;-79
2023/05/21 05:14:33;;;;;;;7.70;4.70;;;;;;;14.17;55.68;100429.00;106067;1259;59547;-80
2023/05/21 05:17:00;;;;;;;7.20;4.50;;;;;;;14.16;55.75;100427.34;106030;1254;72037;-81
2023/05/21 05:19:28;;;;;;;6.90;4.60;;;;;;;14.17;55.79;100424.76;106053;1260;70626;-81
2023/05/21 05:21:55;;;;;;;6.30;4.70;;;;;;;14.21;55.85;100428.85;105919;1257;70593;-73
2023/05/21 05:24:21;;;;;;;5.50;4.60;;;;;;;14.25;55.87;100428.79;105704;1263;59660;-74
2023/05/21 05:26:48;;;;;;;7.90;4.40;;;;;;;14.29;55.75;100431.54;105657;1258;61613;-74
2023/05/21 05:29:15;;;;;;;8.20;5.10;;;;;;;14.33;55.76;100433.60;105880;1260;72003;-72
2023/05/21 05:31:42;;;;;;;6.50;4.30;;;;;;;14.35;55.81;100433.55;105653;1262;71474;-73
2023/05/21 05:34:09;;;;;;;7.20;4.70;;;;;;;14.40;55.86;100434.13;105760;1257;73849;-76
2023/05/21 05:36:35;;;;;;;5.20;4.30;;;;;;;14.46;55.94;100433.93;105499;1257;60108;-77
2023/05/21 05:39:02;;;;;;;6.70;4.30;;;;;;;14.52;55.99;100431.71;105498;1257;60375;-77
2023/05/21 05:41:29;;;;;;;6.30;4.70;;;;;;;14.61;55.90;100431.14;105603;1260;73941;-76
2023/05/21 05:43:56;;;;;;;8.80;5.00;;;;;;;14.64;55.72;100427.23;105662;1257;69917;-75
2023/05/21 05:46:24;;;;;;;11.50;5.20;;;;;;;14.68;55.86;100428.86;105660;1257;73595;-75
2023/05/21 05:48:51;;;;;;;5.80;4.00;;;;;;;14.74;55.75;100428.76;105631;1258;59719;-74
2023/05/21 05:51:18;;;;;;;6.30;4.90;;;;;;;14.78;55.60;100429.30;105718;1260;60411;-75
2023/05/21 05:53:45;;;;;;;6.40;4.40;;;;;;;14.84;55.37;100426.39;105704;1258;72819;-74
2023/05/21 05:56:12;;;;;;;7.30;4.10;;;;;;;14.88;55.10;100423.77;105624;1260;70116;-75
2023/05/21 05:58:39;;;;;;;9.10;4.80;;;;;;;14.92;55.15;100420.98;105553;1262;71065;-72
2023/05/21 06:01:09;;;;;;;6.20;4.20;;;;;;;15.00;55.11;100421.84;105925;1256;60374;-79
2023/05/21 06:03:35;;;;;;;7.90;4.10;;;;;;;15.09;55.06;100423.59;106000;1255;59667;-79
2023/05/21 06:06:10;;;;;;;5.60;4.00;;;;;;;15.15;54.90;100419.09;105726;1262;72420;-78
2023/05/21 06:08:39;;;;;;;6.50;4.80;;;;;;;15.24;54.90;100418.10;105580;1260;69425;-78
2023/05/21 06:11:06;;;;;;;9.60;4.50;;;;;;;15.31;54.76;100415.25;105773;1260;72653;-77
2023/05/21 06:13:33;;;;;;;5.00;4.50;;;;;;;15.39;54.64;100415.77;105570;1260;61523;-75
2023/05/21 06:16:02;;;;;;;5.00;3.70;;;;;;;15.47;54.67;100417.13;106084;1257;61204;-77
2023/05/21 06:18:29;;;;;;;6.80;4.40;;;;;;;15.57;54.44;100416.63;106482;1257;71285;-74
2023/05/21 06:20:56;;;;;;;6.30;4.50;;;;;;;15.66;54.30;100417.12;106801;1259;71210;-78
2023/05/21 06:23:23;;;;;;;5.70;4.00;;;;;;;15.74;54.05;100417.49;105938;1256;72994;-78
2023/05/21 06:25:50;;;;;;;6.40;4.10;;;;;;;15.79;54.08;100419.88;105760;1267;61083;-78
2023/05/21 06:28:18;;;;;;;5.10;3.90;;;;;;;15.85;53.79;100422.19;106297;1257;61228;-77
2023/05/21 06:30:45;;;;;;;5.80;3.30;;;;;;;15.92;53.48;100414.24;105895;1257;72763;-76
2023/05/21 06:33:11;;;;;;;4.30;3.60;;;;;;;16.02;53.26;100418.94;105611;1263;69521;-74
2023/05/21 06:35:39;;;;;;;5.40;3.10;;;;;;;16.13;53.03;100416.64;105809;1260;73892;-75
2023/05/21 06:38:07;;;;;;;5.70;3.90;;;;;;;16.23;52.63;100414.56;106354;1257;60802;-74
2023/05/21 06:40:35;;;;;;;6.10;3.80;;;;;;;16.32;52.26;100403.78;105667;1260;61083;-73
2023/05/21 06:43:03;;;;;;;5.00;3.60;;;;;;;16.38;51.91;100401.78;105900;1259;73922;-77
2023/05/21 06:45:56;;;;;;;6.00;3.90;;;;;;;16.47;51.43;100404.34;105971;1257;70727;-77
2023/05/21 06:48:35;;;;;;;5.00;3.50;;;;;;;16.58;51.28;100401.56;107404;1257;71690;-75
2023/05/21 06:51:02;;;;;;;8.90;3.50;;;;;;;16.67;51.03;100397.70;106700;1262;61052;-73
2023/05/21 06:53:29;;;;;;;4.20;3.40;;;;;;;16.73;50.79;100396.93;105758;1257;59615;-78
2023/05/21 06:55:56;;;;;;;5.90;3.60;;;;;;;16.78;50.71;100392.80;105888;1263;72390;-78
2023/05/21 06:58:34;;;;;;;5.30;3.60;;;;;;;16.82;50.54;100385.52;105890;1261;69738;-80
2023/05/21 07:01:01;;;;;;;5.10;3.30;;;;;;;16.82;50.56;100382.23;105871;1257;72052;-78
2023/05/21 07:03:29;;;;;;;4.00;3.30;;;;;;;16.88;50.40;100378.63;105583;1262;61330;-79
2023/05/21 07:05:56;;;;;;;8.80;3.60;;;;;;;16.92;50.07;100375.79;105883;1257;60279;-80
2023/05/21 07:08:23;;;;;;;5.20;3.00;;;;;;;16.99;50.51;100374.26;105681;1258;73129;-74
2023/05/21 07:10:50;;;;;;;5.90;3.00;;;;;;;17.06;50.08;100372.77;105923;1260;70898;-79
2023/05/21 07:13:17;;;;;;;4.30;2.70;;;;;;;17.11;49.43;100370.39;106221;1258;72373;-80
2023/05/21 07:15:43;;;;;;;4.10;3.00;;;;;;;17.17;48.68;100371.21;106381;1254;61343;-81
2023/05/21 07:18:10;;;;;;;5.30;2.80;;;;;;;17.23;48.00;100368.65;105972;1257;61074;-81
2023/05/21 07:20:38;;;;;;;4.10;2.60;;;;;;;17.31;47.86;100368.71;105941;1256;71916;-80
2023/05/21 07:23:05;;;;;;;3.50;2.40;;;;;;;17.41;47.53;100369.71;106235;1266;70367;-81
2023/05/21 07:25:35;;;;;;;4.20;2.50;;;;;;;17.51;47.33;100366.51;106089;1260;73913;-79
2023/05/21 07:28:02;;;;;;;4.40;3.10;;;;;;;17.62;47.09;100368.31;105848;1260;59712;-81
2023/05/21 07:30:32;;;;;;;5.80;2.60;;;;;;;17.71;46.73;100360.30;105841;1260;60273;-80
2023/05/21 07:33:00;;;;;;;9.20;3.50;;;;;;;17.76;46.43;100356.64;106337;1256;73394;-82
2023/05/21 07:35:28;;;;;;;5.00;2.60;;;;;;;17.76;46.35;100352.99;107116;1256;69243;-79
2023/05/21 07:37:54;;;;;;;5.30;2.60;;;;;;;17.79;46.29;100353.62;106284;1257;72698;-79
2023/05/21 07:40:21;;;;;;;5.50;3.00;;;;;;;17.82;46.07;100354.43;105726;1260;60605;-80
2023/05/21 07:42:48;;;;;;;3.60;2.80;;;;;;;17.84;46.07;100352.85;105756;1258;60069;-79
2023/05/21 07:45:14;;;;;;;5.10;2.80;;;;;;;17.89;46.10;100344.06;105952;1254;72105;-79
2023/05/21 07:47:44;;;;;;;6.70;2.60;;;;;;;17.93;46.18;100341.96;106013;1257;69260;-80
2023/05/21 07:50:11;;;;;;;5.10;2.90;;;;;;;17.97;45.92;100343.92;105941;1260;71907;-82
2023/05/21 07:52:38;;;;;;;12.50;9.10;;;;;;;18.02;46.09;100342.40;105942;1255;59743;-79
2023/05/21 07:55:06;;;;;;;5.40;3.20;;;;;;;18.07;45.84;100349.05;106167;1257;59505;-80
2023/05/21 07:57:34;;;;;;;4.10;2.80;;;;;;;18.12;45.44;100341.98;106165;1255;72711;-82
2023/05/21 08:00:11;;;;;;;5.30;3.40;;;;;;;18.15;45.36;100336.91;106077;1254;71605;-78
2023/05/21 08:02:47;;;;;;;6.10;3.00;;;;;;;18.18;45.34;100341.91;106079;1256;72992;-79
2023/05/21 08:05:15;;;;;;;4.30;2.90;;;;;;;18.20;45.27;100349.95;106061;1254;61972;-80
2023/05/21 08:07:42;;;;;;;7.60;3.00;;;;;;;18.25;45.20;100349.47;106116;1257;61353;-81
2023/05/21 08:10:09;;;;;;;4.80;2.80;;;;;;;18.31;45.14;100348.19;105969;1254;72074;-81
2023/05/21 08:12:36;;;;;;;7.40;2.90;;;;;;;18.40;44.95;100345.22;106144;1257;72148;-80
2023/05/21 08:15:05;;;;;;;4.40;3.00;;;;;;;18.50;44.82;100339.98;106098;1257;72474;-83
2023/05/21 08:17:33;;;;;;;3.00;2.50;;;;;;;18.60;44.66;100338.83;106663;1254;59859;-80
2023/05/21 08:20:00;;;;;;;4.50;2.90;;;;;;;18.66;44.42;100339.16;107874;1255;60164;-80
2023/05/21 08:22:27;;;;;;;3.90;3.00;;;;;;;18.73;44.47;100338.50;106306;1256;73945;-80
2023/05/21 08:24:54;;;;;;;4.90;2.80;;;;;;;18.83;44.33;100339.85;106103;1255;68212;-81
2023/05/21 08:27:21;;;;;;;5.00;3.20;;;;;;;18.91;44.38;100336.98;107140;1257;72384;-80
2023/05/21 08:29:47;;;;;;;3.60;2.80;;;;;;;19.04;44.15;100334.84;106756;1251;61487;-82
2023/05/21 08:32:15;;;;;;;4.60;3.20;;;;;;;19.15;43.55;100334.06;106326;1256;60328;-80
2023/05/21 08:34:42;;;;;;;5.50;2.80;;;;;;;19.23;43.66;100326.34;106192;1254;74240;-81
2023/05/21 08:37:20;;;;;;;5.60;3.00;;;;;;;19.33;43.71;100322.58;106230;1254;69943;-79
2023/05/21 08:39:59;;;;;;;5.00;3.00;;;;;;;19.50;43.39;100323.90;106297;1254;72830;-81
2023/05/21 08:42:46;;;;;;;6.30;2.60;;;;;;;19.65;43.24;100322.73;108360;1251;60024;-80
2023/05/21 08:45:36;;;;;;;3.60;2.50;;;;;;;19.83;42.80;100326.21;107238;1254;60452;-81
2023/05/21 08:48:04;;;;;;;6.90;2.90;;;;;;;19.90;42.58;100326.05;106204;1259;74054;-80
2023/05/21 08:50:32;;;;;;;6.40;3.10;;;;;;;19.98;42.38;100318.00;106412;1256;70310;-77
2023/05/21 08:53:02;;;;;;;3.30;2.80;;;;;;;20.08;42.30;100315.20;106056;1257;72944;-81
2023/05/21 08:55:42;;;;;;;4.80;2.80;;;;;;;20.25;41.98;100318.50;105989;1257;60412;-81
2023/05/21 08:58:10;;;;;;;3.00;2.70;;;;;;;20.41;41.79;100311.75;106118;1257;60495;-79
2023/05/21 09:00:38;;;;;;;7.70;2.90;;;;;;;20.62;41.54;100313.06;106206;1254;73347;-79
2023/05/21 09:03:10;;;;;;;4.10;3.00;;;;;;;20.84;41.45;100313.42;105954;1254;71041;-81
2023/05/21 09:05:41;;;;;;;5.40;3.00;;;;;;;21.11;41.08;100304.68;106374;1254;72797;-80
2023/05/21 09:08:18;;;;;;;6.80;3.10;;;;;;;21.39;40.31;100294.70;106356;1257;60390;-80
2023/05/21 09:10:59;;;;;;;4.30;3.00;;;;;;;21.71;40.05;100303.40;106170;1251;60536;-81
2023/05/21 09:13:32;;;;;;;4.70;2.90;;;;;;;21.95;39.46;100299.66;106309;1256;75036;-81
2023/05/21 09:16:02;;;;;;;4.40;3.10;;;;;;;22.10;39.23;100305.98;106227;1254;71920;-85
2023/05/21 09:18:30;;;;;;;8.90;4.00;;;;;;;22.33;38.93;100292.56;106556;1260;72998;-81
2023/05/21 09:21:26;;;;;;;5.10;2.90;;;;;;;22.83;38.66;100288.89;106293;1257;61431;-79
2023/05/21 09:23:57;;;;;;;7.30;3.10;;;;;;;23.42;38.34;100289.51;106186;1251;60434;-80
2023/05/21 09:26:25;;;;;;;3.40;2.80;;;;;;;24.10;37.88;100286.16;106006;1257;74073;-80
2023/05/21 09:28:58;;;;;;;3.80;3.20;;;;;;;24.80;36.80;100284.11;106159;1256;71584;-80
2023/05/21 09:31:26;;;;;;;4.10;3.00;;;;;;;25.41;35.93;100290.67;106072;1251;71568;-75
2023/05/21 09:33:54;;;;;;;8.90;2.90;;;;;;;25.97;35.26;100288.77;106251;1254;60609;-81
2023/05/21 09:36:21;;;;;;;4.40;3.10;;;;;;;26.47;34.29;100282.70;106333;1251;60295;-83
2023/05/21 09:38:50;;;;;;;4.50;2.70;;;;;;;26.87;33.75;100283.16;106612;1254;74123;-83
2023/05/21 09:41:20;;;;;;;3.70;2.70;;;;;;;27.27;33.17;100282.23;108013;1251;69279;-83
2023/05/21 09:43:48;;;;;;;4.60;3.20;;;;;;;27.56;32.68;100276.05;107707;1254;74294;-81
2023/05/21 09:46:15;;;;;;;7.90;3.40;;;;;;;27.78;32.32;100278.40;107357;1255;60316;-81
2023/05/21 09:48:42;;;;;;;6.50;2.90;;;;;;;28.06;32.25;100278.52;107635;1251;60319;-80
2023/05/21 09:51:14;;;;;;;3.80;3.10;;;;;;;28.37;31.78;100268.65;107963;1256;72676;-77
2023/05/21 09:54:01;;;;;;;4.60;2.90;;;;;;;28.61;31.27;100266.19;107765;1251;68490;-77
2023/05/21 09:56:31;;;;;;;4.00;2.90;;;;;;;28.82;30.80;100264.46;106314;1257;74243;-78
2023/05/21 09:58:59;;;;;;;4.50;2.90;;;;;;;28.85;30.44;100260.58;106166;1251;60927;-81
2023/05/21 10:01:26;;;;;;;5.10;2.80;;;;;;;28.96;30.48;100266.23;106310;1251;60427;-77
2023/05/21 10:03:55;;;;;;;4.20;2.70;;;;;;;29.19;30.23;100268.91;106579;1251;74880;-80
2023/05/21 10:06:29;;;;;;;4.10;2.60;;;;;;;29.40;30.18;100263.80;106299;1251;70417;-80
2023/05/21 10:08:59;;;;;;;5.10;2.50;;;;;;;29.62;30.30;100262.31;106276;1251;72445;-78
2023/05/21 10:11:29;;;;;;;5.50;3.40;;;;;;;29.94;29.87;100250.80;106442;1251;60764;-81
2023/05/21 10:14:08;;;;;;;6.10;2.80;;;;;;;30.12;29.51;100256.54;106291;1251;60633;-78
2023/05/21 10:16:35;;;;;;;3.90;2.90;;;;;;;30.22;29.63;100258.47;106268;1251;73509;-80
2023/05/21 10:19:03;;;;;;;8.20;6.50;;;;;;;30.41;29.20;100257.34;106095;1251;69420;-79
2023/05/21 10:21:30;;;;;;;7.70;4.40;;;;;;;30.65;28.95;100248.73;106176;1251;72817;-77
2023/05/21 10:23:56;;;;;;;4.60;2.90;;;;;;;30.87;28.88;100240.61;105949;1251;60493;-78
2023/05/21 10:26:23;;;;;;;5.00;3.50;;;;;;;31.08;28.65;100247.52;106043;1256;60426;-79
2023/05/21 10:28:50;;;;;;;7.70;3.40;;;;;;;31.29;28.33;100242.70;106064;1254;73567;-77
2023/05/21 10:31:18;;;;;;;7.00;3.10;;;;;;;31.41;28.27;100243.04;106002;1251;70608;-78
2023/05/21 10:33:46;;;;;;;3.90;3.00;;;;;;;31.50;28.05;100247.11;106210;1254;71993;-80
2023/05/21 10:36:15;;;;;;;7.60;3.00;;;;;;;31.53;28.09;100241.64;106185;1261;60309;-79
2023/05/21 10:38:41;;;;;;;4.60;2.90;;;;;;;31.56;27.62;100240.46;106505;1251;60479;-77
2023/05/21 10:41:11;;;;;;;4.90;2.60;;;;;;;31.52;27.68;100238.02;106396;1251;73114;-78
2023/05/21 10:43:51;;;;;;;3.40;2.80;;;;;;;31.69;27.44;100237.90;106149;1251;70792;-77
2023/05/21 10:46:46;;;;;;;4.70;3.30;;;;;;;31.87;27.29;100245.27;106979;1257;72754;-77
2023/05/21 10:49:24;;;;;;;4.90;3.00;;;;;;;31.89;27.60;100244.63;107194;1257;60513;-77
2023/05/21 10:51:57;;;;;;;3.20;2.90;;;;;;;32.14;27.57;100245.85;107016;1251;60455;-79
2023/05/21 10:54:45;;;;;;;3.60;3.10;;;;;;;32.34;26.91;100247.92;106750;1251;73758;-77
2023/05/21 10:57:21;;;;;;;3.10;2.80;;;;;;;32.46;26.85;100250.26;106411;1254;70199;-78
2023/05/21 10:59:47;;;;;;;3.30;3.00;;;;;;;32.59;26.88;100252.13;106877;1257;73984;-79
2023/05/21 11:02:14;;;;;;;3.90;2.80;;;;;;;32.80;26.74;100252.84;106586;1257;60347;-78
2023/05/21 11:04:47;;;;;;;5.40;2.90;;;;;;;32.92;26.49;100245.28;107204;1251;60325;-82
2023/05/21 11:07:15;;;;;;;3.70;2.60;;;;;;;32.95;26.51;100244.02;107879;1251;74197;-79
2023/05/21 11:09:42;;;;;;;4.00;2.70;;;;;;;32.93;26.40;100241.05;106130;1257;69246;-80
2023/05/21 11:12:09;;;;;;;3.20;2.60;;;;;;;32.83;26.18;100233.09;106154;1254;73183;-78
2023/05/21 11:14:41;;;;;;;4.60;3.10;;;;;;;32.60;26.43;100241.87;106249;1251;62537;-78
2023/05/21 11:17:14;;;;;;;3.50;2.80;;;;;;;32.34;26.71;100243.47;106314;1251;60443;-79
2023/05/21 11:19:42;;;;;;;8.10;3.40;;;;;;;32.18;26.89;100247.65;106286;1251;73317;-79
2023/05/21 11:22:19;;;;;;;5.80;3.40;;;;;;;32.13;26.85;100247.35;106392;1251;68493;-80
2023/05/21 11:24:46;;;;;;;5.20;3.20;;;;;;;32.19;26.80;100246.81;106274;1256;72395;-78
2023/05/21 11:27:36;;;;;;;4.60;2.70;;;;;;;32.26;26.84;100244.23;106506;1254;60446;-78